Time;durP1;ratioP1;P1;durP2;ratioP2;P2;SDS_P1;SDS_P2;PMS_P1;PMS_P2;Temp;Humidity;BMP_temperature;BMP_pressure;BME280_temperature;BME280_humidity;BME280_pressure;Samples;Min_cycle;Max_cycle;Signal;HPM_P1;HPM_P2
2022/09/21 00:01:26;;;;;;;4.40;2.70;;;;;;;12.76;74.13;99921.84;1709299;83;21281;-72
2022/09/21 00:03:58;;;;;;;5.40;2.90;;;;;;;12.78;74.10;99917.56;1706672;83;21238;-72
2022/09/21 00:06:26;;;;;;;5.03;2.80;;;;;;;12.79;74.06;99923.16;1708299;83;22632;-72
2022/09/21 00:08:54;;;;;;;4.70;2.70;;;;;;;12.78;74.04;99919.69;1705841;83;21343;-72
2022/09/21 00:11:26;;;;;;;4.23;2.57;;;;;;;12.78;74.02;99920.23;1690254;84;21274;-72
2022/09/21 00:14:09;;;;;;;5.60;3.50;;;;;;;12.77;74.01;99916.77;1704255;82;21350;-73
2022/09/21 00:16:37;;;;;;;5.60;2.93;;;;;;;12.77;74.04;99916.77;1704797;83;21212;-72
2022/09/21 00:19:05;;;;;;;5.70;2.87;;;;;;;12.88;73.80;99916.87;1710607;82;21225;-71
2022/09/21 00:21:33;;;;;;;4.80;3.23;;;;;;;12.94;73.57;99919.51;1705011;83;21713;-73
2022/09/21 00:24:01;;;;;;;5.50;3.30;;;;;;;12.96;73.46;99914.64;1711296;83;21345;-72
2022/09/21 00:26:29;;;;;;;5.70;2.90;;;;;;;12.95;73.40;99914.39;1723715;83;21212;-72
2022/09/21 00:28:59;;;;;;;6.03;3.17;;;;;;;12.87;73.58;99915.84;1721794;83;21310;-71
2022/09/21 00:31:27;;;;;;;4.43;2.90;;;;;;;12.77;73.82;99911.41;1714619;83;21782;-72
2022/09/21 00:33:54;;;;;;;5.50;3.13;;;;;;;12.76;73.95;99917.04;1723688;82;21252;-72
2022/09/21 00:36:23;;;;;;;5.53;3.47;;;;;;;12.75;74.03;99914.11;1718353;83;21326;-71
2022/09/21 00:38:56;;;;;;;3.97;2.80;;;;;;;12.74;74.08;99916.00;1698059;83;21239;-73
2022/09/21 00:41:24;;;;;;;5.57;3.30;;;;;;;12.76;74.17;99918.38;1693335;84;21203;-72
2022/09/21 00:44:31;;;;;;;4.00;3.00;;;;;;;12.77;74.17;99918.11;1705019;83;21766;-72
2022/09/21 00:47:09;;;;;;;4.83;3.40;;;;;;;12.79;74.18;99912.45;1723779;83;21272;-72
2022/09/21 00:49:36;;;;;;;4.40;3.10;;;;;;;12.79;74.22;99914.58;1723686;83;21301;-72
2022/09/21 00:52:04;;;;;;;5.30;3.90;;;;;;;12.81;74.19;99912.42;1723895;83;21190;-71
2022/09/21 00:54:42;;;;;;;4.20;3.07;;;;;;;12.81;74.14;99911.63;1717063;81;21857;-72
2022/09/21 00:57:10;;;;;;;5.17;3.00;;;;;;;12.80;74.13;99914.85;1709145;83;21963;-72
2022/09/21 00:59:37;;;;;;;6.03;3.57;;;;;;;12.80;74.15;99905.99;1708958;81;21105;-72
2022/09/21 01:02:05;;;;;;;4.33;3.00;;;;;;;12.79;74.16;99906.54;1703966;83;21377;-70
2022/09/21 01:04:32;;;;;;;4.47;3.60;;;;;;;12.81;74.19;99911.08;1709154;83;21828;-71
2022/09/21 01:07:02;;;;;;;5.73;4.00;;;;;;;12.82;74.19;99909.98;1709617;83;21409;-72
2022/09/21 01:09:31;;;;;;;4.87;3.27;;;;;;;12.83;74.19;99915.63;1694924;84;21795;-71
2022/09/21 01:12:31;;;;;;;4.73;3.70;;;;;;;12.85;74.17;99921.47;1690756;84;21722;-71
2022/09/21 01:15:38;;;;;;;5.63;3.60;;;;;;;12.85;74.13;99908.07;1697304;83;21262;-71
2022/09/21 01:18:38;;;;;;;5.17;3.40;;;;;;;12.86;74.14;99920.93;1716533;82;21233;-71
2022/09/21 01:21:21;;;;;;;5.50;3.10;;;;;;;12.87;74.13;99907.80;1705325;83;21435;-73
2022/09/21 01:24:13;;;;;;;4.57;3.60;;;;;;;12.88;74.11;99912.06;1704773;83;22191;-73
2022/09/21 01:27:14;;;;;;;6.93;3.67;;;;;;;12.90;74.10;99913.93;1712297;83;21721;-71
2022/09/21 01:29:56;;;;;;;5.90;4.00;;;;;;;12.90;74.03;99912.59;1721326;82;21222;-71
2022/09/21 01:32:28;;;;;;;5.53;3.83;;;;;;;12.89;74.00;99918.47;1692322;83;21385;-73
2022/09/21 01:35:06;;;;;;;4.50;3.50;;;;;;;12.90;73.99;99917.41;1706132;83;21030;-70
2022/09/21 01:37:38;;;;;;;4.70;3.90;;;;;;;12.91;73.99;99915.52;1708562;83;21084;-70
2022/09/21 01:40:10;;;;;;;5.10;4.30;;;;;;;12.91;74.01;99914.97;1708995;83;21553;-70
2022/09/21 01:42:39;;;;;;;;;;;;;;;12.93;73.96;99916.00;1710689;83;21162;-70
2022/09/21 01:45:07;;;;;;;6.63;4.00;;;;;;;12.93;73.91;99919.23;1709948;83;20176;-70
2022/09/21 01:47:35;;;;;;;4.97;4.33;;;;;;;12.90;73.88;99925.99;1714180;83;21173;-71
2022/09/21 01:50:05;;;;;;;4.87;4.03;;;;;;;12.89;73.92;99923.83;1723676;81;21271;-71
2022/09/21 01:52:49;;;;;;;6.23;4.73;;;;;;;12.91;73.92;99916.86;1723448;83;21199;-73
2022/09/21 01:55:22;;;;;;;9.23;4.27;;;;;;;12.93;73.88;99921.37;1716914;83;21292;-71
2022/09/21 01:58:01;;;;;;;5.63;4.40;;;;;;;12.93;73.80;99923.25;1709747;82;21287;-71
2022/09/21 02:00:29;;;;;;;6.63;4.70;;;;;;;12.91;73.75;99917.65;1723812;83;21364;-72
2022/09/21 02:03:01;;;;;;;5.77;4.07;;;;;;;12.92;73.75;99913.08;1723533;83;21275;-70
2022/09/21 02:05:29;;;;;;;;;;;;;;;12.95;73.75;99910.37;1726505;83;21354;-70
2022/09/21 02:07:56;;;;;;;7.47;4.47;;;;;;;12.98;73.71;99915.95;1698579;83;20453;-71
2022/09/21 02:10:31;;;;;;;7.43;4.37;;;;;;;13.01;73.71;99916.72;1703311;83;21104;-70
2022/09/21 02:13:02;;;;;;;6.43;4.67;;;;;;;13.03;73.69;99917.75;1697964;83;21218;-70
2022/09/21 02:16:08;;;;;;;5.97;4.73;;;;;;;13.06;73.67;99919.86;1709656;83;21805;-71
2022/09/21 02:19:10;;;;;;;6.00;4.60;;;;;;;13.08;73.60;99919.05;1709328;83;21889;-71
2022/09/21 02:21:54;;;;;;;6.37;4.40;;;;;;;13.06;73.54;99922.03;1708692;83;21923;-70
2022/09/21 02:24:27;;;;;;;8.13;5.30;;;;;;;13.05;73.46;99922.30;1717366;83;21302;-71
2022/09/21 02:27:16;;;;;;;6.63;5.00;;;;;;;13.04;73.44;99928.76;1720234;83;21306;-70
2022/09/21 02:30:07;;;;;;;6.20;4.77;;;;;;;13.04;73.43;99926.08;1694720;84;21763;-71
2022/09/21 02:32:52;;;;;;;6.80;4.67;;;;;;;13.01;73.42;99920.73;1694971;84;21179;-70
2022/09/21 02:35:51;;;;;;;4.70;4.13;;;;;;;13.03;73.43;99928.48;1708518;83;21051;-71
2022/09/21 02:38:25;;;;;;;8.83;5.00;;;;;;;13.02;73.44;99930.91;1710200;83;21303;-70
2022/09/21 02:40:59;;;;;;;7.33;4.73;;;;;;;13.03;73.42;99928.48;1705743;83;21279;-71
2022/09/21 02:43:30;;;;;;;6.13;5.20;;;;;;;13.01;73.44;99931.46;1709135;83;21264;-70
2022/09/21 02:46:03;;;;;;;7.08;4.47;;;;;;;13.00;73.44;99931.77;1717836;83;21308;-71
2022/09/21 02:48:34;;;;;;;7.60;5.50;;;;;;;13.01;73.47;99928.78;1711861;83;21058;-71
2022/09/21 02:51:13;;;;;;;6.08;4.97;;;;;;;12.99;73.43;99928.81;1705616;83;21290;-70
2022/09/21 02:53:40;;;;;;;7.00;4.83;;;;;;;12.98;73.43;99932.58;1708754;83;21027;-72
2022/09/21 02:56:10;;;;;;;7.10;4.80;;;;;;;12.96;73.39;99932.06;1709328;83;21228;-71
2022/09/21 02:58:41;;;;;;;7.17;5.00;;;;;;;12.93;73.38;99932.09;1724026;82;21237;-72
2022/09/21 03:01:10;;;;;;;7.87;5.40;;;;;;;12.93;73.47;99939.34;1723829;83;21256;-70
2022/09/21 03:03:37;;;;;;;5.83;4.80;;;;;;;12.93;73.51;99936.66;1715724;83;21182;-71
2022/09/21 03:06:04;;;;;;;6.40;4.80;;;;;;;12.95;73.57;99939.86;1723899;83;21266;-71
2022/09/21 03:08:32;;;;;;;7.20;4.77;;;;;;;12.96;73.55;99940.11;1705286;83;21240;-74
2022/09/21 03:10:58;;;;;;;7.90;5.50;;;;;;;12.94;73.47;99940.41;1694922;84;21287;-71
2022/09/21 03:13:25;;;;;;;6.23;4.77;;;;;;;12.91;73.43;99934.28;1694995;84;21294;-72
2022/09/21 03:16:04;;;;;;;7.27;5.00;;;;;;;12.89;73.38;99932.41;1694760;84;21238;-72
2022/09/21 03:18:33;;;;;;;6.87;4.97;;;;;;;12.88;73.37;99938.87;1694842;84;21147;-72
2022/09/21 03:21:01;;;;;;;6.80;5.17;;;;;;;12.89;73.39;99939.11;1694819;84;21254;-72
2022/09/21 03:23:29;;;;;;;7.23;5.00;;;;;;;12.91;73.40;99940.98;1694894;84;21233;-72
2022/09/21 03:25:55;;;;;;;6.80;4.83;;;;;;;12.93;73.38;99944.15;1694765;84;21186;-72
2022/09/21 03:28:22;;;;;;;8.13;5.40;;;;;;;12.95;73.37;99943.88;1694711;84;21362;-71
2022/09/21 03:30:49;;;;;;;9.00;4.70;;;;;;;12.97;73.36;99947.87;1694956;84;21207;-72
2022/09/21 03:33:18;;;;;;;5.83;4.97;;;;;;;12.99;73.33;99944.89;1695165;84;21271;-71
2022/09/21 03:35:46;;;;;;;6.80;5.23;;;;;;;13.00;73.28;99947.85;1694747;84;21379;-72
2022/09/21 03:38:13;;;;;;;5.13;4.30;;;;;;;13.01;73.25;99950.78;1694877;84;21233;-71
2022/09/21 03:40:44;;;;;;;5.57;4.10;;;;;;;13.00;73.22;99947.85;1694648;84;21290;-72
2022/09/21 03:43:11;;;;;;;4.67;3.93;;;;;;;12.98;73.17;99950.01;1672325;84;21280;-71
2022/09/21 03:45:39;;;;;;;6.37;4.60;;;;;;;12.96;73.15;99949.48;1694763;84;21522;-72
2022/09/21 03:48:09;;;;;;;5.70;4.60;;;;;;;12.96;73.12;99953.51;1694779;84;21029;-72
2022/09/21 03:50:37;;;;;;;4.87;4.23;;;;;;;12.94;73.07;99959.72;1694737;84;21255;-73
2022/09/21 03:53:04;;;;;;;6.10;4.37;;;;;;;12.93;73.02;99971.50;1694860;84;21253;-72
2022/09/21 03:55:32;;;;;;;5.40;4.10;;;;;;;12.91;73.00;99957.85;1694858;84;21074;-72
2022/09/21 03:57:58;;;;;;;5.70;4.10;;;;;;;12.89;72.95;99963.23;1671330;84;21219;-71
2022/09/21 04:00:25;;;;;;;5.03;4.27;;;;;;;12.89;72.96;99961.35;1694625;84;21405;-72
2022/09/21 04:02:51;;;;;;;6.57;4.53;;;;;;;12.90;72.98;99963.52;1695171;84;21178;-71
2022/09/21 04:05:17;;;;;;;6.90;4.40;;;;;;;12.90;73.00;99968.88;1694746;84;21303;-71
2022/09/21 04:07:46;;;;;;;6.37;4.83;;;;;;;12.91;73.01;99963.22;1694997;84;21297;-71
2022/09/21 04:10:16;;;;;;;6.53;4.13;;;;;;;12.92;73.02;99965.34;1694788;84;22223;-71
2022/09/21 04:12:45;;;;;;;6.10;4.65;;;;;;;12.91;72.97;99969.13;1694978;84;21419;-72
2022/09/21 04:15:14;;;;;;;5.80;4.40;;;;;;;12.89;72.96;99974.75;1694764;83;21121;-70
2022/09/21 04:17:42;;;;;;;7.10;4.13;;;;;;;12.88;72.93;99975.05;1694688;84;21256;-72
2022/09/21 04:20:08;;;;;;;5.40;4.67;;;;;;;12.88;72.95;99979.08;1694742;83;21831;-72
2022/09/21 04:22:35;;;;;;;7.50;4.93;;;;;;;12.87;72.99;99982.30;1694911;84;21534;-70
2022/09/21 04:25:04;;;;;;;6.27;4.63;;;;;;;12.86;73.03;99975.88;1694807;83;21784;-70
2022/09/21 04:27:32;;;;;;;6.07;4.80;;;;;;;12.88;73.07;99973.72;1695012;84;21282;-71
2022/09/21 04:29:59;;;;;;;6.43;4.43;;;;;;;12.89;73.09;99976.09;1694571;84;21190;-71
2022/09/21 04:32:26;;;;;;;5.77;5.10;;;;;;;12.91;73.10;99983.31;1694835;84;21251;-71
2022/09/21 04:34:52;;;;;;;6.70;4.43;;;;;;;12.92;73.02;99984.11;1694692;83;21881;-72
2022/09/21 04:37:19;;;;;;;6.23;4.80;;;;;;;12.90;72.99;99980.39;1695008;84;21350;-71
2022/09/21 04:39:46;;;;;;;5.80;5.07;;;;;;;12.90;72.98;99985.75;1694539;84;21274;-71
2022/09/21 04:42:13;;;;;;;6.57;5.40;;;;;;;12.93;72.98;99987.59;1694914;84;21273;-70
2022/09/21 04:44:39;;;;;;;7.30;4.90;;;;;;;12.92;72.95;99977.41;1695061;83;21259;-70
2022/09/21 04:47:06;;;;;;;7.90;5.60;;;;;;;12.94;72.91;99973.13;1707211;83;21313;-70
2022/09/21 04:49:32;;;;;;;9.93;5.10;;;;;;;12.95;72.85;99981.41;1699525;83;21423;-70
2022/09/21 04:51:59;;;;;;;6.20;4.87;;;;;;;12.95;72.79;99980.06;1723818;83;21322;-70
2022/09/21 04:54:25;;;;;;;5.90;4.60;;;;;;;12.95;72.74;99979.52;1723793;83;21339;-70
2022/09/21 04:56:52;;;;;;;7.23;4.80;;;;;;;12.96;72.63;99977.63;1709555;83;21084;-71
2022/09/21 04:59:19;;;;;;;5.40;4.70;;;;;;;12.95;72.56;99977.39;1704292;83;21828;-71
2022/09/21 05:01:45;;;;;;;6.60;4.93;;;;;;;12.94;72.46;99977.14;1710291;83;21748;-71
2022/09/21 05:04:12;;;;;;;6.37;4.43;;;;;;;12.93;72.36;99988.92;1677842;83;21982;-71
2022/09/21 05:06:38;;;;;;;6.33;4.17;;;;;;;12.90;72.36;99984.41;1709880;83;21293;-71
2022/09/21 05:11:52;;;;;;;5.37;4.30;;;;;;;12.90;72.33;99988.44;1702496;83;21236;-71
2022/09/21 05:14:20;;;;;;;6.03;4.50;;;;;;;12.89;72.28;99991.38;1709840;83;21367;-71
2022/09/21 05:16:48;;;;;;;5.93;4.20;;;;;;;12.90;72.30;99987.64;1706618;83;21749;-71
2022/09/21 05:19:16;;;;;;;5.53;3.80;;;;;;;12.91;72.32;99987.88;1709713;83;21179;-71
2022/09/21 05:21:42;;;;;;;4.80;4.20;;;;;;;12.91;72.31;99986.55;1706588;83;22152;-70
2022/09/21 05:24:09;;;;;;;4.80;4.03;;;;;;;12.93;72.30;99988.92;1709001;83;21296;-70
2022/09/21 05:26:35;;;;;;;5.70;4.13;;;;;;;12.94;72.25;99999.38;1705811;83;21246;-70
2022/09/21 05:29:03;;;;;;;7.37;4.30;;;;;;;12.96;72.22;100000.42;1709284;83;21302;-70
2022/09/21 05:31:48;;;;;;;6.00;4.00;;;;;;;12.95;72.14;100006.33;1704817;83;21280;-70
2022/09/21 05:35:02;;;;;;;6.10;4.13;;;;;;;12.96;72.10;100007.12;1709700;81;22201;-70
2022/09/21 05:37:52;;;;;;;6.27;4.27;;;;;;;12.96;72.04;100001.76;1716066;83;21305;-72
2022/09/21 05:40:20;;;;;;;5.30;4.03;;;;;;;12.98;72.06;100000.39;1703342;83;21274;-73
2022/09/21 05:42:48;;;;;;;6.47;4.30;;;;;;;13.02;72.01;100005.44;1701714;83;21287;-71
2022/09/21 05:45:16;;;;;;;6.10;3.97;;;;;;;13.04;71.88;100003.82;1712108;82;21332;-71
2022/09/21 05:48:01;;;;;;;5.30;3.80;;;;;;;13.02;71.72;100008.66;1724006;83;21274;-71
2022/09/21 05:51:00;;;;;;;4.47;3.37;;;;;;;13.01;71.68;100007.87;1719929;83;21184;-71
2022/09/21 05:53:49;;;;;;;5.60;3.87;;;;;;;13.00;71.63;100013.53;1720076;83;21421;-72
2022/09/21 05:56:33;;;;;;;5.77;4.50;;;;;;;12.99;71.56;100015.39;1723801;82;21306;-73
2022/09/21 05:59:15;;;;;;;5.63;4.27;;;;;;;12.97;71.46;100016.78;1716192;83;21723;-71
2022/09/21 06:02:05;;;;;;;6.45;4.35;;;;;;;12.96;71.40;100011.14;1667329;86;21236;-72
2022/09/21 06:04:32;;;;;;;6.57;4.23;;;;;;;12.99;71.39;100030.67;1666873;86;21238;-72
2022/09/21 06:06:59;;;;;;;5.90;4.30;;;;;;;13.00;71.28;100021.57;1666616;86;21281;-73
2022/09/21 06:09:28;;;;;;;5.03;4.13;;;;;;;13.03;71.26;100024.48;1702649;83;21872;-71
2022/09/21 06:11:54;;;;;;;4.80;4.03;;;;;;;13.06;71.13;100027.10;1704427;83;21288;-72
2022/09/21 06:14:24;;;;;;;6.80;4.00;;;;;;;13.06;71.07;100023.08;1666899;85;21325;-72
2022/09/21 06:16:49;;;;;;;5.47;4.03;;;;;;;13.08;70.95;100028.42;1651405;87;21324;-72
2022/09/21 06:19:16;;;;;;;5.47;3.90;;;;;;;13.09;70.96;100027.33;1697861;83;21451;-71
2022/09/21 06:21:42;;;;;;;6.67;3.97;;;;;;;13.10;70.84;100028.95;1720800;83;21359;-73
2022/09/21 06:24:10;;;;;;;5.77;3.70;;;;;;;13.10;70.75;100028.16;1718326;83;21240;-72
2022/09/21 06:26:37;;;;;;;5.80;3.97;;;;;;;13.11;70.72;100029.19;1681227;83;21282;-72
2022/09/21 06:29:07;;;;;;;6.07;3.63;;;;;;;13.11;70.67;100030.53;1667052;84;21720;-71
2022/09/21 06:31:34;;;;;;;4.47;3.50;;;;;;;13.13;70.60;100042.33;1708015;83;21847;-71
2022/09/21 06:34:01;;;;;;;4.60;3.43;;;;;;;13.12;70.67;100041.50;1709764;82;21739;-71
2022/09/21 06:36:30;;;;;;;6.17;3.53;;;;;;;13.14;70.69;100033.19;1669164;83;21933;-70
2022/09/21 06:38:56;;;;;;;4.87;3.63;;;;;;;13.16;70.54;100044.41;1702343;83;21931;-71
2022/09/21 06:41:23;;;;;;;7.10;4.67;;;;;;;13.16;70.33;100043.06;1675050;84;21165;-71
2022/09/21 06:43:55;;;;;;;8.23;4.23;;;;;;;13.17;70.24;100045.23;1666233;84;21292;-71
2022/09/21 06:46:23;;;;;;;7.63;4.50;;;;;;;13.18;70.30;100040.12;1710017;83;21231;-70
2022/09/21 06:48:50;;;;;;;7.67;4.80;;;;;;;13.23;70.34;100042.75;1708621;83;21334;-70
2022/09/21 06:51:16;;;;;;;11.70;5.57;;;;;;;13.26;70.29;100051.05;1709312;83;21333;-70
2022/09/21 06:53:43;;;;;;;10.87;5.20;;;;;;;13.31;70.23;100050.17;1680292;84;21410;-71
2022/09/21 06:56:11;;;;;;;9.33;5.13;;;;;;;13.35;70.21;100050.64;1674766;84;21232;-71
2022/09/21 06:58:37;;;;;;;9.00;5.70;;;;;;;13.40;70.03;100054.37;1707091;83;21349;-70
2022/09/21 07:01:10;;;;;;;9.07;5.80;;;;;;;13.41;69.97;100058.09;1716948;83;21050;-71
2022/09/21 07:03:37;;;;;;;11.37;6.27;;;;;;;13.42;70.02;100062.36;1723955;83;21311;-71
2022/09/21 07:06:06;;;;;;;12.20;6.30;;;;;;;13.46;70.02;100055.88;1720076;82;21339;-73
2022/09/21 07:08:32;;;;;;;11.30;5.70;;;;;;;13.47;69.99;100064.20;1696883;83;21616;-73
2022/09/21 07:11:00;;;;;;;11.47;6.07;;;;;;;13.49;69.90;100066.86;1723897;81;21357;-72
2022/09/21 07:13:27;;;;;;;12.40;6.57;;;;;;;13.51;69.89;100063.87;1712458;83;21228;-72
2022/09/21 07:15:55;;;;;;;11.53;5.83;;;;;;;13.53;69.92;100063.05;1709418;82;21484;-72
2022/09/21 07:18:22;;;;;;;10.80;5.70;;;;;;;13.56;69.80;100064.61;1701758;83;21910;-71
2022/09/21 07:20:52;;;;;;;12.00;5.63;;;;;;;13.57;69.77;100064.06;1701574;83;21082;-70
2022/09/21 07:23:21;;;;;;;10.93;5.63;;;;;;;13.59;69.80;100069.95;1693255;84;21351;-71
2022/09/21 07:26:15;;;;;;;7.83;5.50;;;;;;;13.63;69.84;100070.97;1674797;83;21410;-72
2022/09/21 07:28:42;;;;;;;12.30;6.03;;;;;;;13.69;69.83;100067.13;1697405;83;21209;-73
2022/09/21 07:31:13;;;;;;;9.17;5.13;;;;;;;13.72;69.79;100079.97;1702329;83;21860;-72
2022/09/21 07:33:41;;;;;;;7.85;5.42;;;;;;;13.76;69.72;100072.14;1687242;83;21199;-73
2022/09/21 07:36:11;;;;;;;10.00;5.77;;;;;;;13.80;69.74;100076.62;1698472;83;21490;-72
2022/09/21 07:38:42;;;;;;;13.40;5.30;;;;;;;13.90;69.79;100077.03;1696819;83;21740;-72
2022/09/21 07:41:10;;;;;;;7.63;4.73;;;;;;;14.04;69.71;100072.52;1698671;83;21354;-72
2022/09/21 07:43:40;;;;;;;10.73;4.70;;;;;;;14.18;69.63;100072.59;1698238;83;21346;-70
2022/09/21 07:46:11;;;;;;;13.30;4.50;;;;;;;14.38;69.44;100068.78;1698332;83;21442;-71
2022/09/21 07:48:38;;;;;;;9.07;4.47;;;;;;;14.87;67.62;100066.08;1707166;83;21279;-72
2022/09/21 07:51:07;;;;;;;11.73;4.67;;;;;;;15.16;66.62;100071.70;1702632;83;21878;-73
2022/09/21 07:53:36;;;;;;;10.67;4.57;;;;;;;15.40;65.54;100062.89;1716056;83;21363;-70
2022/09/21 07:56:09;;;;;;;8.97;4.10;;;;;;;15.40;65.54;100062.89;1723701;83;21406;-72
2022/09/21 08:01:22;;;;;;;5.63;3.07;;;;;;;15.74;64.13;100068.38;1707065;83;22237;-70
2022/09/21 08:03:52;;;;;;;8.13;2.40;;;;;;;15.85;63.02;100062.21;1709172;83;22260;-71
2022/09/21 08:06:18;;;;;;;7.03;3.03;;;;;;;15.91;62.82;100063.14;1706371;83;21743;-72
2022/09/21 08:08:50;;;;;;;8.57;2.90;;;;;;;15.92;61.58;100065.27;1714101;83;21807;-72
2022/09/21 08:11:18;;;;;;;7.93;2.87;;;;;;;15.88;61.55;100070.48;1722662;83;21725;-72
2022/09/21 08:13:45;;;;;;;6.00;2.80;;;;;;;15.89;61.72;100069.92;1704344;83;21817;-71
2022/09/21 08:16:11;;;;;;;7.50;2.80;;;;;;;15.70;61.22;100081.66;1709376;83;21687;-71
2022/09/21 08:18:40;;;;;;;7.30;2.80;;;;;;;15.70;61.22;100081.66;1704693;83;21015;-72
2022/09/21 08:21:07;;;;;;;6.70;2.60;;;;;;;15.59;61.22;100084.27;1714609;83;21807;-73
2022/09/21 08:23:33;;;;;;;6.67;2.83;;;;;;;15.44;61.47;100079.23;1704446;83;21715;-72
2022/09/21 08:26:01;;;;;;;6.60;2.50;;;;;;;15.22;61.91;100088.79;1702868;81;21703;-72
2022/09/21 08:28:33;;;;;;;4.93;2.30;;;;;;;15.03;62.45;100102.88;1717254;83;21795;-72
2022/09/21 08:31:01;;;;;;;4.37;2.33;;;;;;;14.84;62.79;100089.53;1721508;82;22315;-72
2022/09/21 08:33:28;;;;;;;4.53;2.40;;;;;;;14.72;63.09;100084.61;1720069;83;21637;-72
2022/09/21 08:35:56;;;;;;;4.50;2.27;;;;;;;14.70;63.30;100098.09;1723903;82;21039;-71
2022/09/21 08:38:23;;;;;;;11.17;2.90;;;;;;;14.68;63.60;100084.97;1723728;83;21651;-72
2022/09/21 08:40:50;;;;;;;5.57;2.60;;;;;;;14.76;63.57;100093.67;1723374;82;22196;-72
2022/09/21 08:43:31;;;;;;;7.27;2.43;;;;;;;14.81;63.50;100091.98;1724190;83;21707;-72
2022/09/21 08:45:57;;;;;;;4.57;2.33;;;;;;;14.83;63.53;100091.16;1723491;81;21688;-71
2022/09/21 08:48:29;;;;;;;4.67;2.13;;;;;;;14.83;63.13;100091.16;1719200;83;21523;-71
2022/09/21 08:50:58;;;;;;;4.20;2.13;;;;;;;14.84;64.17;100095.42;1708472;83;22276;-71
2022/09/21 08:53:29;;;;;;;4.17;2.40;;;;;;;14.84;64.17;100095.42;1709258;83;21593;-71
2022/09/21 08:55:56;;;;;;;2.85;1.98;;;;;;;14.82;63.72;100094.39;1709321;83;21552;-71
2022/09/21 08:58:25;;;;;;;4.83;2.60;;;;;;;14.82;64.15;100103.01;1720273;83;21120;-71
2022/09/21 09:01:21;;;;;;;4.70;2.60;;;;;;;14.86;64.98;100105.35;1720764;82;21639;-72
2022/09/21 09:04:21;;;;;;;5.77;2.70;;;;;;;14.88;65.19;100101.83;1720292;83;21655;-71
2022/09/21 09:06:59;;;;;;;4.53;2.60;;;;;;;14.88;65.19;100101.83;1703887;82;21484;-73
2022/09/21 09:09:52;;;;;;;4.53;2.47;;;;;;;14.90;65.37;100103.11;1709249;83;21656;-72
2022/09/21 09:12:42;;;;;;;5.17;2.40;;;;;;;14.96;63.66;100110.54;1705063;83;21768;-71
2022/09/21 09:15:18;;;;;;;3.63;2.20;;;;;;;15.03;64.04;100110.15;1709416;83;22036;-71
2022/09/21 09:18:02;;;;;;;3.97;2.23;;;;;;;15.09;63.49;100115.14;1703326;83;21739;-71
2022/09/21 09:20:40;;;;;;;4.00;1.80;;;;;;;15.09;63.49;100115.14;1717540;83;22147;-71
2022/09/21 09:23:26;;;;;;;4.77;2.30;;;;;;;15.22;61.79;100108.97;1723902;83;21774;-71
2022/09/21 09:25:57;;;;;;;5.37;2.23;;;;;;;15.22;61.79;100108.97;1721379;82;21777;-71
2022/09/21 09:28:34;;;;;;;7.08;2.27;;;;;;;15.43;61.51;100109.38;1720095;83;22129;-72
2022/09/21 09:31:28;;;;;;;5.60;2.40;;;;;;;15.45;61.51;100131.95;1718912;83;21061;-71
2022/09/21 09:34:04;;;;;;;5.87;2.50;;;;;;;15.48;61.31;100115.20;1700587;83;21753;-71
2022/09/21 09:36:34;;;;;;;4.80;2.07;;;;;;;15.54;61.28;100113.21;1723176;83;22182;-71
2022/09/21 09:39:05;;;;;;;7.43;2.87;;;;;;;15.58;61.32;100105.56;1724211;83;21757;-71
2022/09/21 09:41:57;;;;;;;4.67;2.10;;;;;;;15.63;61.23;100112.20;1660278;84;21776;-71
2022/09/21 09:45:09;;;;;;;4.80;2.15;;;;;;;15.81;60.39;100111.05;1656505;85;21523;-72
2022/09/21 09:48:01;;;;;;;4.50;1.97;;;;;;;15.85;59.77;100114.73;1666156;85;21360;-71
2022/09/21 09:50:35;;;;;;;4.30;1.90;;;;;;;15.87;59.19;100130.84;1665062;85;21820;-71
2022/09/21 09:53:18;;;;;;;3.73;1.53;;;;;;;15.87;58.88;100124.66;1665838;85;21260;-70
2022/09/21 09:55:53;;;;;;;2.27;1.30;;;;;;;15.74;59.10;100130.86;1665491;85;22229;-70
2022/09/21 09:58:37;;;;;;;3.00;1.70;;;;;;;15.73;58.35;100130.59;1665464;85;21767;-71
2022/09/21 10:01:04;;;;;;;3.87;1.40;;;;;;;15.73;58.19;100127.91;1624043;85;21724;-71
2022/09/21 10:03:30;;;;;;;3.63;1.33;;;;;;;15.69;57.97;100127.19;1717441;83;21794;-71
2022/09/21 10:05:57;;;;;;;2.40;1.40;;;;;;;15.76;58.20;100125.44;1724251;83;21679;-72
2022/09/21 10:08:43;;;;;;;4.20;1.70;;;;;;;15.88;58.19;100127.03;1697607;83;21724;-71
2022/09/21 10:11:12;;;;;;;4.80;1.77;;;;;;;15.88;58.47;100130.28;1708282;83;21803;-71
2022/09/21 10:13:45;;;;;;;4.83;1.90;;;;;;;15.97;58.07;100127.68;1719780;83;21663;-70
2022/09/21 10:16:21;;;;;;;7.03;2.10;;;;;;;15.97;57.83;100124.43;1699463;83;22311;-71
2022/09/21 10:19:00;;;;;;;5.33;2.10;;;;;;;15.96;58.28;100129.58;1693810;84;21749;-73
2022/09/21 10:21:40;;;;;;;3.43;1.90;;;;;;;16.02;58.22;100133.73;1694300;83;21765;-72
2022/09/21 10:24:22;;;;;;;2.73;2.00;;;;;;;16.02;58.22;100133.73;1698792;83;22399;-73
2022/09/21 10:26:56;;;;;;;3.30;1.90;;;;;;;16.02;58.10;100132.37;1724093;81;22190;-71
2022/09/21 10:29:29;;;;;;;3.20;1.77;;;;;;;15.99;57.88;100128.98;1697006;83;21742;-71
2022/09/21 10:31:59;;;;;;;3.60;1.87;;;;;;;15.93;57.39;100131.53;1721176;83;21902;-71
2022/09/21 10:34:31;;;;;;;4.08;2.00;;;;;;;15.86;57.47;100141.38;1667035;86;26509;-71
2022/09/21 10:37:04;;;;;;;4.27;2.03;;;;;;;15.79;57.53;100142.86;1638378;86;21577;-71
2022/09/21 10:39:32;;;;;;;3.77;2.33;;;;;;;15.71;57.85;100145.16;1664499;85;22196;-70
2022/09/21 10:42:13;;;;;;;4.10;2.27;;;;;;;15.65;58.00;100145.55;1678555;85;21860;-71
2022/09/21 10:44:46;;;;;;;4.67;2.20;;;;;;;15.57;58.21;100141.67;1679523;85;22201;-73
2022/09/21 10:47:35;;;;;;;5.80;2.47;;;;;;;15.56;58.28;100150.82;1671019;85;21531;-72
2022/09/21 10:50:05;;;;;;;8.47;2.63;;;;;;;15.59;58.29;100157.50;1671040;85;22352;-73
2022/09/21 10:52:42;;;;;;;5.30;2.27;;;;;;;15.63;58.11;100145.86;1679179;85;21754;-72
2022/09/21 10:55:18;;;;;;;5.37;2.30;;;;;;;15.64;57.93;100146.65;1671557;85;21755;-72
2022/09/21 10:57:44;;;;;;;4.23;1.80;;;;;;;15.65;57.68;100150.92;1720561;81;21782;-72
2022/09/21 11:00:36;;;;;;;2.70;1.67;;;;;;;15.67;57.55;100153.60;1723830;83;21834;-72
2022/09/21 11:03:31;;;;;;;3.95;1.50;;;;;;;15.78;57.29;100160.91;1717355;83;21707;-73
2022/09/21 11:06:09;;;;;;;7.50;1.60;;;;;;;15.76;56.83;100146.97;1706944;83;20979;-72
2022/09/21 11:08:58;;;;;;;3.17;1.70;;;;;;;15.82;56.70;100146.30;1724091;83;22233;-72
2022/09/21 11:11:46;;;;;;;3.33;1.63;;;;;;;15.89;56.47;100143.98;1703335;83;21816;-71
2022/09/21 11:14:42;;;;;;;2.97;1.60;;;;;;;15.96;56.16;100141.70;1707357;83;21867;-72
2022/09/21 11:17:46;;;;;;;2.40;1.53;;;;;;;16.09;56.35;100142.73;1723900;83;21747;-72
2022/09/21 11:20:45;;;;;;;4.70;1.53;;;;;;;16.09;56.35;100142.73;1717471;83;21067;-71
2022/09/21 11:23:26;;;;;;;3.20;2.00;;;;;;;16.15;55.88;100132.89;1711338;82;21703;-72
2022/09/21 11:26:04;;;;;;;2.90;1.67;;;;;;;16.16;56.17;100138.55;1712619;83;21792;-72
2022/09/21 11:28:50;;;;;;;3.60;1.90;;;;;;;16.18;56.38;100147.10;1705612;83;21675;-72
2022/09/21 11:31:40;;;;;;;3.30;1.87;;;;;;;16.18;56.36;100147.10;1715362;82;21723;-72
2022/09/21 11:34:36;;;;;;;3.80;1.70;;;;;;;16.18;56.73;100142.27;1724216;83;21805;-71
2022/09/21 11:37:19;;;;;;;3.80;1.90;;;;;;;16.22;56.73;100143.80;1700239;83;21656;-72
2022/09/21 11:40:14;;;;;;;3.00;1.70;;;;;;;16.29;56.29;100141.51;1723758;83;21746;-73
2022/09/21 11:43:10;;;;;;;3.90;1.90;;;;;;;16.34;56.10;100146.77;1713713;83;21007;-71
2022/09/21 11:45:59;;;;;;;2.50;1.60;;;;;;;16.34;56.10;100146.77;1706118;83;21076;-72
2022/09/21 11:48:37;;;;;;;3.77;1.83;;;;;;;16.40;55.97;100141.50;1718904;82;21665;-71
2022/09/21 11:51:42;;;;;;;2.97;1.40;;;;;;;16.42;55.75;100146.05;1723709;83;21671;-72
2022/09/21 11:54:56;;;;;;;3.03;1.60;;;;;;;16.45;55.38;100146.76;1722491;83;21796;-72
2022/09/21 11:57:56;;;;;;;3.07;1.80;;;;;;;16.60;55.44;100135.62;1723946;82;21074;-71
2022/09/21 12:00:23;;;;;;;2.40;1.77;;;;;;;16.68;55.44;100145.41;1718524;83;21102;-71
2022/09/21 12:03:22;;;;;;;3.37;1.70;;;;;;;16.68;55.44;100145.41;1724081;82;20991;-73
2022/09/21 12:06:12;;;;;;;3.93;1.80;;;;;;;16.64;55.32;100137.14;1719664;83;21177;-73
2022/09/21 12:09:04;;;;;;;3.43;1.70;;;;;;;16.64;55.32;100137.14;1709817;83;21941;-73